Time;durP1;ratioP1;P1;durP2;ratioP2;P2;SDS_P1;SDS_P2;PMS_P1;PMS_P2;Temp;Humidity;BMP_temperature;BMP_pressure;BME280_temperature;BME280_humidity;BME280_pressure;Samples;Min_cycle;Max_cycle;Signal;HPM_P1;HPM_P2
2022/02/06 00:01:40;;;;;;;27.10;9.40;;;;;;;2.20;69.93;99101.53;105971;1277;111387;-73
2022/02/06 00:04:11;;;;;;;21.80;7.10;;;;;;;2.21;69.95;99104.30;106153;1274;97850;-69
2022/02/06 00:06:41;;;;;;;24.70;8.10;;;;;;;2.21;69.87;99102.90;106142;1274;107787;-69
2022/02/06 00:09:09;;;;;;;327.70;207.00;;;;;;;2.22;69.93;99109.34;106093;1274;98095;-68
2022/02/06 00:11:38;;;;;;;88.60;50.40;;;;;;;2.27;69.69;99107.05;106122;1274;97787;-68
2022/02/06 00:14:06;;;;;;;49.50;22.60;;;;;;;2.33;69.87;99108.92;106108;1274;110240;-70
2022/02/06 00:16:34;;;;;;;23.70;9.30;;;;;;;2.36;69.72;99106.16;106179;1274;97871;-73
2022/02/06 00:19:02;;;;;;;21.00;7.10;;;;;;;2.35;69.77;99109.55;106112;1275;106653;-70
2022/02/06 00:21:32;;;;;;;19.30;7.80;;;;;;;2.34;69.64;99108.37;106203;1274;97838;-72
2022/02/06 00:24:03;;;;;;;22.70;6.90;;;;;;;2.33;69.66;99106.27;106019;1274;98078;-70
2022/02/06 00:26:38;;;;;;;21.00;6.70;;;;;;;2.33;69.85;99103.65;106032;1274;111401;-72
2022/02/06 00:29:32;;;;;;;16.80;5.70;;;;;;;2.31;69.63;99099.17;106038;1274;98594;-71
2022/02/06 00:32:07;;;;;;;22.50;6.20;;;;;;;2.32;69.79;99090.23;105988;1274;107403;-82
2022/02/06 00:40:04;;;;;;;20.60;6.80;;;;;;;2.28;69.50;99090.92;106086;1274;111258;-73
2022/02/06 00:42:32;;;;;;;22.40;6.40;;;;;;;2.25;69.85;99083.30;106150;1274;97749;-73
2022/02/06 00:45:00;;;;;;;18.80;5.70;;;;;;;2.23;69.32;99081.46;106043;1274;107468;-73
2022/02/06 00:47:28;;;;;;;18.60;6.10;;;;;;;2.19;69.66;99083.02;106141;1274;97975;-70
2022/02/06 00:49:58;;;;;;;19.10;5.90;;;;;;;2.14;69.50;99081.30;106117;1274;95318;-71
2022/02/06 00:52:34;;;;;;;19.80;6.10;;;;;;;2.10;69.48;99083.02;106152;1274;111033;-70
2022/02/06 00:55:02;;;;;;;19.90;6.40;;;;;;;2.08;69.51;99082.36;106159;1274;95280;-69
2022/02/06 00:57:30;;;;;;;25.30;6.60;;;;;;;2.07;69.56;99079.96;106109;1274;107446;-71
2022/02/06 00:59:58;;;;;;;21.10;6.90;;;;;;;2.04;69.54;99071.48;106046;1274;98030;-72
2022/02/06 01:02:26;;;;;;;20.80;6.70;;;;;;;2.02;69.31;99070.90;106107;1274;98158;-72
2022/02/06 01:04:54;;;;;;;23.30;8.00;;;;;;;2.01;69.29;99063.61;105950;1275;111578;-72
2022/02/06 01:07:22;;;;;;;19.90;6.80;;;;;;;1.99;69.32;99062.27;105921;1274;98648;-72
2022/02/06 01:09:50;;;;;;;21.20;6.10;;;;;;;1.98;69.38;99059.50;105915;1272;107597;-73
2022/02/06 01:12:23;;;;;;;20.50;6.40;;;;;;;1.98;69.16;99060.56;105994;1274;97941;-72
2022/02/06 01:15:08;;;;;;;26.00;7.80;;;;;;;1.97;69.09;99050.80;106042;1274;97829;-70
2022/02/06 01:18:24;;;;;;;23.60;7.50;;;;;;;1.96;69.08;99041.76;106025;1274;111847;-72
2022/02/06 01:23:01;;;;;;;22.50;7.20;;;;;;;1.94;69.26;99035.68;106023;1274;108020;-72
2022/02/06 01:25:39;;;;;;;;;;;;;;;1.96;69.03;99028.63;105964;1276;98994;-72
2022/02/06 01:28:13;;;;;;;23.20;7.10;;;;;;;1.95;69.47;99023.75;106143;1274;97873;-72
2022/02/06 01:33:18;;;;;;;20.80;7.20;;;;;;;1.94;69.18;99012.92;106169;1274;97857;-72
2022/02/06 01:35:57;;;;;;;18.20;5.40;;;;;;;1.95;69.19;99010.84;106120;1274;107215;-72
2022/02/06 01:38:32;;;;;;;20.00;6.40;;;;;;;1.93;69.04;99006.34;106155;1274;97964;-73
2022/02/06 01:41:10;;;;;;;21.30;6.30;;;;;;;1.90;68.91;98998.91;106144;1274;97801;-72
2022/02/06 01:43:47;;;;;;;20.30;5.90;;;;;;;1.88;68.89;98998.66;106075;1274;111463;-73
2022/02/06 01:46:35;;;;;;;19.00;6.00;;;;;;;1.86;68.88;99000.31;106092;1274;99012;-73
2022/02/06 02:05:44;;;;;;;18.30;6.20;;;;;;;1.82;68.99;98965.15;106118;1274;97882;-73
2022/02/06 02:27:03;;;;;;;19.40;7.20;;;;;;;1.58;68.30;98963.23;105927;1274;95292;-72
2022/02/06 02:49:16;;;;;;;17.20;5.70;;;;;;;1.35;68.18;98941.36;105905;1274;98059;-71
2022/02/06 02:51:46;;;;;;;18.20;6.20;;;;;;;1.34;68.07;98935.65;106111;1274;109461;-72
2022/02/06 02:54:22;;;;;;;19.70;6.60;;;;;;;1.35;68.19;98931.77;106115;1274;98046;-73
2022/02/06 02:57:00;;;;;;;18.50;6.70;;;;;;;1.33;68.05;98926.61;106078;1274;108694;-73
2022/02/06 02:59:43;;;;;;;18.10;5.80;;;;;;;1.31;67.99;98920.72;106082;1274;96584;-74
2022/02/06 03:02:11;;;;;;;16.80;5.80;;;;;;;1.31;68.16;98916.38;106079;1274;97873;-72
2022/02/06 03:04:39;;;;;;;17.70;6.00;;;;;;;1.29;67.92;98912.05;106073;1274;109994;-72
2022/02/06 03:07:07;;;;;;;18.20;5.70;;;;;;;1.28;68.15;98916.65;106087;1274;95242;-72
2022/02/06 03:09:39;;;;;;;19.00;6.00;;;;;;;1.25;68.00;98914.30;106079;1274;107732;-73
2022/02/06 03:12:08;;;;;;;17.00;5.70;;;;;;;1.22;67.81;98911.10;106107;1274;97874;-73
2022/02/06 03:14:45;;;;;;;18.30;5.80;;;;;;;1.19;67.92;98905.95;106154;1274;97990;-73
2022/02/06 03:17:22;;;;;;;20.00;6.40;;;;;;;1.17;67.91;98902.01;106114;1274;111431;-73
2022/02/06 03:19:55;;;;;;;19.40;5.90;;;;;;;1.16;67.91;98897.52;106086;1274;98086;-73
2022/02/06 03:22:34;;;;;;;18.50;5.60;;;;;;;1.14;67.94;98897.05;106083;1274;107768;-73
2022/02/06 03:25:07;;;;;;;17.00;6.20;;;;;;;1.12;67.93;98897.50;106078;1274;97993;-72
2022/02/06 03:27:35;;;;;;;16.30;6.50;;;;;;;1.10;68.16;98894.05;106133;1274;96980;-73
2022/02/06 03:30:05;;;;;;;15.70;5.90;;;;;;;1.09;67.79;98892.19;106101;1274;111388;-72
2022/02/06 03:32:33;;;;;;;18.20;5.40;;;;;;;1.08;67.78;98897.80;106032;1274;142717;-72
2022/02/06 03:35:01;;;;;;;17.50;5.80;;;;;;;1.06;67.69;98897.86;106087;1274;107496;-72
2022/02/06 03:37:29;;;;;;;20.90;5.40;;;;;;;1.06;67.76;98894.39;106038;1274;97921;-71
2022/02/06 03:39:59;;;;;;;15.10;4.90;;;;;;;1.04;67.85;98893.04;106072;1274;97894;-72
2022/02/06 03:42:35;;;;;;;15.40;5.50;;;;;;;1.03;67.98;98893.42;106069;1274;111166;-71
2022/02/06 03:45:07;;;;;;;20.40;6.50;;;;;;;1.04;67.76;98883.77;106086;1274;98050;-71
2022/02/06 03:47:53;;;;;;;16.70;4.80;;;;;;;1.05;67.85;98873.98;106163;1274;106644;-71
2022/02/06 03:50:21;;;;;;;17.50;5.20;;;;;;;1.05;67.86;98870.49;106119;1274;98550;-70
2022/02/06 03:52:51;;;;;;;14.80;4.60;;;;;;;1.04;67.79;98867.56;106171;1274;96577;-71
2022/02/06 03:55:20;;;;;;;18.50;5.50;;;;;;;1.04;67.76;98860.21;106072;1274;111491;-70
2022/02/06 03:57:50;;;;;;;14.80;4.60;;;;;;;1.05;67.89;98855.83;106006;1274;97970;-72
2022/02/06 04:00:20;;;;;;;15.20;4.80;;;;;;;1.05;67.50;98849.88;106106;1274;107818;-72
2022/02/06 04:02:47;;;;;;;12.90;4.60;;;;;;;1.06;67.66;98847.60;106108;1274;97956;-71
2022/02/06 04:05:15;;;;;;;13.60;4.00;;;;;;;1.06;67.74;98849.88;106104;1274;97873;-71
2022/02/06 04:07:45;;;;;;;12.30;4.20;;;;;;;1.08;67.69;98845.96;106102;1274;111481;-72
2022/02/06 04:10:15;;;;;;;14.90;4.40;;;;;;;1.09;67.63;98841.02;106176;1274;95332;-70
2022/02/06 04:12:44;;;;;;;15.60;4.50;;;;;;;1.10;67.76;98836.45;106077;1274;106470;-72
2022/02/06 04:15:20;;;;;;;13.70;4.30;;;;;;;1.10;67.49;98835.41;106076;1274;98053;-72
2022/02/06 04:18:06;;;;;;;15.40;4.90;;;;;;;1.10;67.74;98833.98;106123;1274;98050;-72
2022/02/06 04:20:34;;;;;;;10.50;4.10;;;;;;;1.12;67.71;98828.67;106100;1274;111462;-72
2022/02/06 04:23:02;;;;;;;13.00;4.10;;;;;;;1.13;67.62;98823.23;106077;1274;98017;-71
2022/02/06 04:25:30;;;;;;;14.70;4.70;;;;;;;1.15;67.66;98818.96;106086;1274;107727;-71
2022/02/06 04:28:02;;;;;;;15.50;4.60;;;;;;;1.14;67.53;98813.55;106105;1274;98043;-70
2022/02/06 04:30:29;;;;;;;10.40;3.30;;;;;;;1.14;67.59;98813.58;106120;1274;97951;-70
2022/02/06 04:32:57;;;;;;;15.30;4.50;;;;;;;1.15;67.62;98814.23;106028;1274;112287;-71
2022/02/06 04:35:30;;;;;;;12.50;4.20;;;;;;;1.16;67.49;98811.59;106060;1274;97876;-71
2022/02/06 04:38:26;;;;;;;12.60;4.20;;;;;;;1.19;67.33;98810.27;106098;1274;107812;-70
2022/02/06 04:41:16;;;;;;;12.40;4.60;;;;;;;1.19;67.48;98811.46;105977;1275;97902;-72
2022/02/06 04:54:44;;;;;;;8.10;3.40;;;;;;;1.27;67.24;98795.80;106098;1274;95375;-72
2022/02/06 05:27:29;;;;;;;8.30;3.00;;;;;;;1.40;66.85;98740.45;106122;1274;111326;-72
2022/02/06 05:32:40;;;;;;;13.70;4.10;;;;;;;1.45;66.58;98737.77;106123;1274;107660;-72
2022/02/06 05:35:08;;;;;;;9.60;3.90;;;;;;;1.45;66.77;98738.27;106085;1274;97835;-71
2022/02/06 05:37:36;;;;;;;11.30;3.50;;;;;;;1.47;66.76;98731.41;106124;1274;97890;-71
2022/02/06 05:40:06;;;;;;;9.70;3.50;;;;;;;1.47;66.58;98729.80;106081;1274;111374;-72
2022/02/06 05:42:34;;;;;;;13.60;3.70;;;;;;;1.47;66.37;98726.64;106128;1274;97852;-70
2022/02/06 05:45:03;;;;;;;11.10;3.70;;;;;;;1.48;66.09;98723.30;106082;1274;107863;-72
2022/02/06 05:47:33;;;;;;;15.30;4.40;;;;;;;1.49;66.18;98721.52;106191;1274;98007;-71
2022/02/06 05:50:03;;;;;;;11.00;3.60;;;;;;;1.51;66.36;98717.61;106231;1274;95856;-70
2022/02/06 05:52:32;;;;;;;11.50;3.70;;;;;;;1.53;66.05;98718.60;106248;1274;111451;-71
2022/02/06 05:55:00;;;;;;;11.50;3.80;;;;;;;1.53;65.92;98718.06;106257;1274;97803;-72
2022/02/06 05:57:28;;;;;;;12.50;3.60;;;;;;;1.55;66.05;98715.55;106244;1274;107727;-72
2022/02/06 05:59:56;;;;;;;9.50;3.20;;;;;;;1.55;65.89;98709.92;106239;1272;97878;-71
2022/02/06 06:02:24;;;;;;;10.10;3.90;;;;;;;1.56;65.83;98709.91;106160;1274;95335;-73
2022/02/06 06:04:54;;;;;;;8.00;3.40;;;;;;;1.56;65.87;98707.61;106167;1274;111550;-71
2022/02/06 06:07:21;;;;;;;10.50;3.50;;;;;;;1.58;65.93;98698.62;106229;1274;98631;-70
2022/02/06 06:09:49;;;;;;;7.80;3.30;;;;;;;1.59;66.07;98699.28;106163;1274;107756;-70
2022/02/06 06:12:17;;;;;;;9.80;3.60;;;;;;;1.60;65.87;98694.00;106144;1274;97946;-71
2022/02/06 06:14:47;;;;;;;10.40;3.30;;;;;;;1.59;65.98;98691.60;106215;1274;97998;-70
2022/02/06 06:17:15;;;;;;;11.30;4.00;;;;;;;1.59;65.98;98691.05;106189;1274;111311;-71
2022/02/06 06:19:46;;;;;;;11.00;4.00;;;;;;;1.61;65.96;98690.46;106124;1273;95184;-71
2022/02/06 06:22:18;;;;;;;9.40;3.90;;;;;;;1.63;66.14;98688.61;106088;1274;107774;-72
2022/02/06 06:24:51;;;;;;;11.50;3.90;;;;;;;1.66;65.96;98683.10;105974;1274;96983;-72
2022/02/06 06:27:19;;;;;;;13.90;4.40;;;;;;;1.67;65.96;98686.91;106157;1274;95242;-71
2022/02/06 06:29:47;;;;;;;12.20;4.20;;;;;;;1.68;65.80;98688.41;106149;1274;111380;-71
2022/02/06 06:32:15;;;;;;;11.90;4.10;;;;;;;1.70;65.83;98689.58;106132;1274;97959;-70
2022/02/06 06:34:43;;;;;;;12.90;4.20;;;;;;;1.69;65.77;98681.38;106148;1274;107640;-69
2022/02/06 06:37:11;;;;;;;12.80;4.30;;;;;;;1.70;65.34;98679.05;106107;1274;97982;-71
2022/02/06 06:39:47;;;;;;;15.70;4.40;;;;;;;1.71;65.59;98678.15;106024;1274;97991;-71
2022/02/06 06:42:20;;;;;;;14.80;4.70;;;;;;;1.75;65.82;98677.48;106046;1274;111366;-72
2022/02/06 06:44:48;;;;;;;14.70;4.70;;;;;;;1.78;65.88;98676.11;106103;1274;95809;-72
2022/02/06 06:47:16;;;;;;;13.00;4.80;;;;;;;1.80;65.44;98671.48;106082;1274;107826;-69
2022/02/06 06:49:44;;;;;;;13.40;4.20;;;;;;;1.80;65.41;98671.15;106107;1274;95320;-70
2022/02/06 06:52:12;;;;;;;12.00;4.10;;;;;;;1.79;65.52;98668.73;106142;1274;97872;-69
2022/02/06 06:54:46;;;;;;;14.50;4.00;;;;;;;1.81;65.25;98664.45;106165;1274;111435;-70
2022/02/06 06:57:21;;;;;;;14.70;4.70;;;;;;;1.83;65.02;98660.15;106204;1274;95192;-72
2022/02/06 07:04:57;;;;;;;14.80;5.10;;;;;;;1.82;64.75;98650.98;106170;1274;97986;-71
2022/02/06 07:07:26;;;;;;;15.50;5.10;;;;;;;1.81;64.54;98648.88;106130;1274;111560;-71
2022/02/06 07:09:54;;;;;;;16.30;4.70;;;;;;;1.81;64.89;98648.17;106115;1274;97844;-70
2022/02/06 07:12:22;;;;;;;14.90;4.60;;;;;;;1.84;64.77;98641.08;106104;1274;107635;-69
2022/02/06 07:14:50;;;;;;;12.20;4.40;;;;;;;1.85;64.78;98638.19;106190;1274;97889;-70
2022/02/06 07:17:18;;;;;;;12.50;4.80;;;;;;;1.87;64.63;98636.20;106100;1274;97847;-71
2022/02/06 07:19:46;;;;;;;17.40;6.20;;;;;;;1.88;64.39;98633.19;106121;1274;111481;-71
2022/02/06 07:22:15;;;;;;;15.20;5.30;;;;;;;1.88;64.61;98630.92;106079;1274;97880;-69
2022/02/06 07:24:46;;;;;;;15.80;5.20;;;;;;;1.89;64.70;98628.26;106165;1273;107538;-71
2022/02/06 07:27:37;;;;;;;16.80;4.90;;;;;;;1.89;64.41;98628.75;106067;1274;97946;-72
2022/02/06 07:30:07;;;;;;;13.60;4.90;;;;;;;1.89;64.42;98630.02;106138;1274;97869;-71
2022/02/06 07:32:37;;;;;;;14.10;5.20;;;;;;;1.89;64.34;98622.13;106108;1274;111314;-71
2022/02/06 07:35:08;;;;;;;16.90;6.10;;;;;;;1.89;64.13;98623.89;106121;1274;95975;-71
2022/02/06 07:37:37;;;;;;;20.50;6.70;;;;;;;1.89;64.35;98628.59;106054;1274;107653;-73
2022/02/06 07:40:06;;;;;;;18.90;6.70;;;;;;;1.87;63.35;98618.52;106121;1274;97963;-72
2022/02/06 07:42:34;;;;;;;17.90;6.80;;;;;;;1.84;63.48;98604.54;106225;1274;97901;-70
2022/02/06 07:45:04;;;;;;;18.30;7.00;;;;;;;1.81;63.45;98601.52;106162;1274;111390;-70
2022/02/06 07:47:31;;;;;;;20.10;7.70;;;;;;;1.79;63.62;98599.16;106107;1274;95233;-71
2022/02/06 07:50:03;;;;;;;21.70;8.50;;;;;;;1.79;63.85;98598.09;106088;1274;107751;-71
2022/02/06 07:52:31;;;;;;;22.30;7.20;;;;;;;1.82;63.71;98597.27;106111;1273;97889;-72
2022/02/06 07:55:00;;;;;;;21.20;8.10;;;;;;;1.85;63.65;98595.74;106140;1274;97976;-71
2022/02/06 07:57:28;;;;;;;23.50;8.10;;;;;;;1.85;63.61;98591.00;106122;1274;111359;-69
2022/02/06 07:59:56;;;;;;;20.60;7.80;;;;;;;1.89;63.41;98591.90;106110;1274;97988;-70
2022/02/06 08:02:24;;;;;;;22.80;8.30;;;;;;;1.88;62.81;98585.46;105997;1274;107739;-69
2022/02/06 08:04:52;;;;;;;21.20;8.40;;;;;;;1.84;63.20;98580.39;106082;1274;95388;-71
2022/02/06 08:07:20;;;;;;;23.30;9.50;;;;;;;1.86;63.36;98583.98;105999;1274;98573;-71
2022/02/06 08:12:17;;;;;;;23.10;8.60;;;;;;;1.97;63.63;98580.02;106114;1274;97986;-71
2022/02/06 08:14:57;;;;;;;23.40;8.80;;;;;;;2.01;63.51;98577.19;106115;1274;107414;-72
2022/02/06 08:17:26;;;;;;;24.10;9.20;;;;;;;2.06;62.92;98579.04;106108;1274;98592;-72
2022/02/06 08:19:57;;;;;;;23.50;9.60;;;;;;;2.09;63.07;98579.98;106100;1274;97964;-72
2022/02/06 08:22:26;;;;;;;24.60;9.60;;;;;;;2.15;63.02;98572.90;106085;1274;111444;-71
2022/02/06 08:24:55;;;;;;;29.30;11.30;;;;;;;2.15;62.98;98571.30;106147;1274;97877;-72
2022/02/06 08:27:25;;;;;;;23.40;9.70;;;;;;;2.12;63.05;98571.97;106165;1274;105632;-71
2022/02/06 08:29:54;;;;;;;25.00;10.10;;;;;;;2.16;63.08;98570.39;106152;1274;95266;-73
2022/02/06 08:32:23;;;;;;;25.70;10.20;;;;;;;2.24;62.94;98561.09;106004;1274;98056;-72
2022/02/06 08:34:51;;;;;;;24.90;10.20;;;;;;;2.28;63.01;98558.83;106049;1275;111382;-70
2022/02/06 08:37:19;;;;;;;25.60;10.60;;;;;;;2.31;62.61;98557.96;106004;1274;98012;-73
2022/02/06 08:39:47;;;;;;;21.90;9.00;;;;;;;2.32;62.58;98554.95;106197;1274;107797;-71
2022/02/06 08:42:16;;;;;;;24.40;10.30;;;;;;;2.33;62.67;98552.61;106134;1274;97872;-72
2022/02/06 08:44:46;;;;;;;25.60;10.10;;;;;;;2.38;62.70;98552.40;106153;1274;95174;-70
2022/02/06 08:47:16;;;;;;;22.20;8.40;;;;;;;2.43;62.24;98549.72;106095;1274;111391;-71
2022/02/06 08:49:46;;;;;;;24.80;10.70;;;;;;;2.48;62.20;98546.30;106085;1274;97978;-71
2022/02/06 08:52:14;;;;;;;22.30;9.20;;;;;;;2.59;62.85;98546.51;106064;1274;107828;-71
2022/02/06 08:54:44;;;;;;;24.60;10.30;;;;;;;2.70;63.00;98536.87;106079;1274;97942;-72
2022/02/06 08:57:25;;;;;;;23.30;9.10;;;;;;;2.76;62.41;98534.48;106116;1274;97770;-72
2022/02/06 08:59:56;;;;;;;22.60;9.90;;;;;;;2.81;62.76;98534.56;106103;1274;111391;-70
2022/02/06 09:02:24;;;;;;;24.30;10.00;;;;;;;2.92;62.78;98537.52;106089;1274;97853;-69
2022/02/06 09:04:53;;;;;;;24.90;9.50;;;;;;;3.05;63.00;98535.50;106007;1274;107800;-69
2022/02/06 09:07:22;;;;;;;25.20;10.30;;;;;;;3.21;62.71;98534.17;106064;1274;98004;-70
2022/02/06 09:09:56;;;;;;;25.10;10.90;;;;;;;3.46;62.68;98531.30;106114;1274;97885;-71
2022/02/06 09:12:25;;;;;;;23.50;10.00;;;;;;;3.73;62.85;98526.21;105978;1274;111813;-71
2022/02/06 09:14:53;;;;;;;24.00;9.90;;;;;;;3.87;62.32;98527.90;106082;1274;97886;-72
2022/02/06 09:17:22;;;;;;;25.40;11.30;;;;;;;3.95;62.44;98526.13;105955;1274;106886;-71
2022/02/06 09:19:51;;;;;;;25.90;10.60;;;;;;;4.02;62.48;98518.88;106073;1274;97893;-73
2022/02/06 09:22:19;;;;;;;25.10;11.40;;;;;;;4.05;62.29;98514.18;106095;1274;97873;-72
2022/02/06 09:24:47;;;;;;;24.10;10.40;;;;;;;4.01;62.28;98519.11;106196;1274;111383;-73
2022/02/06 09:27:15;;;;;;;25.20;10.50;;;;;;;3.98;62.32;98514.52;106229;1274;97953;-71
2022/02/06 09:29:43;;;;;;;22.90;10.20;;;;;;;3.97;62.20;98512.64;105925;1276;107789;-71
2022/02/06 09:37:33;;;;;;;26.30;11.50;;;;;;;3.89;62.39;98506.09;106185;1274;111839;-77
2022/02/06 09:40:03;;;;;;;22.80;10.20;;;;;;;3.94;62.36;98498.27;106460;1274;97856;-78
2022/02/06 09:42:33;;;;;;;25.20;10.70;;;;;;;3.99;62.14;98495.90;106322;1274;107628;-79
2022/02/06 09:45:01;;;;;;;22.90;10.10;;;;;;;4.09;62.32;98490.28;106255;1274;98030;-76
2022/02/06 09:47:31;;;;;;;27.60;10.80;;;;;;;4.16;61.68;98487.60;106105;1274;95224;-75
2022/02/06 09:50:00;;;;;;;26.60;11.20;;;;;;;4.19;61.70;98482.85;106091;1274;112764;-81
2022/02/06 09:52:29;;;;;;;25.90;11.40;;;;;;;4.20;61.65;98481.23;105979;1275;97960;-84
2022/02/06 09:55:03;;;;;;;24.30;10.20;;;;;;;4.25;61.43;98477.77;106078;1274;107565;-75
2022/02/06 09:57:42;;;;;;;23.20;10.10;;;;;;;4.34;61.36;98475.33;106117;1274;97960;-74
2022/02/06 10:00:10;;;;;;;25.10;11.30;;;;;;;4.43;60.92;98476.08;106140;1274;97849;-75
2022/02/06 10:02:41;;;;;;;23.80;10.20;;;;;;;4.56;61.36;98479.02;106065;1274;111967;-76
2022/02/06 10:05:09;;;;;;;23.10;9.60;;;;;;;4.80;61.46;98469.92;106074;1274;97928;-78
2022/02/06 10:07:44;;;;;;;24.60;10.70;;;;;;;5.07;61.78;98470.63;105897;1276;107799;-78
2022/02/06 10:10:14;;;;;;;24.20;10.50;;;;;;;5.36;61.94;98466.45;105985;1274;98582;-74
2022/02/06 10:12:45;;;;;;;26.00;11.50;;;;;;;5.60;61.39;98456.38;106108;1274;97946;-76
2022/02/06 10:15:16;;;;;;;25.10;10.70;;;;;;;5.65;61.39;98446.36;106003;1274;111025;-80
2022/02/06 10:17:45;;;;;;;22.90;9.30;;;;;;;5.62;60.86;98444.63;106049;1274;95283;-78
2022/02/06 10:20:24;;;;;;;23.10;9.50;;;;;;;5.32;59.24;98445.23;106092;1274;107810;-74
2022/02/06 10:23:00;;;;;;;23.90;9.90;;;;;;;4.92;59.61;98437.05;105918;1274;96093;-77
2022/02/06 10:25:30;;;;;;;24.10;10.20;;;;;;;4.78;59.89;98434.21;106056;1274;97857;-78
2022/02/06 10:30:41;;;;;;;23.00;9.70;;;;;;;4.57;59.54;98428.02;106190;1274;95273;-79
2022/02/06 10:33:17;;;;;;;22.40;9.50;;;;;;;4.45;59.98;98422.75;106122;1274;106919;-76
2022/02/06 10:35:53;;;;;;;26.30;11.30;;;;;;;4.41;60.10;98419.81;106071;1274;99538;-75
2022/02/06 10:38:26;;;;;;;23.90;10.50;;;;;;;4.36;59.84;98414.16;106065;1274;97875;-78
2022/02/06 10:41:17;;;;;;;23.30;10.10;;;;;;;4.30;59.62;98412.57;106019;1274;111313;-76
2022/02/06 10:44:06;;;;;;;22.60;10.10;;;;;;;4.17;59.71;98404.86;106090;1274;95198;-79
2022/02/06 10:46:44;;;;;;;22.90;9.20;;;;;;;4.14;59.75;98394.52;106065;1274;107833;-79
2022/02/06 10:49:15;;;;;;;22.10;8.90;;;;;;;4.14;59.54;98390.50;106186;1274;97968;-77
2022/02/06 10:51:57;;;;;;;24.30;10.50;;;;;;;4.10;59.33;98386.83;106166;1274;95175;-77
2022/02/06 10:54:34;;;;;;;22.50;9.70;;;;;;;4.06;59.32;98381.80;106100;1274;111418;-75
2022/02/06 10:57:05;;;;;;;23.20;10.40;;;;;;;3.98;59.27;98379.27;105992;1274;98595;-75
2022/02/06 10:59:45;;;;;;;22.90;10.20;;;;;;;3.95;59.05;98376.84;106045;1274;108474;-76
2022/02/06 11:02:28;;;;;;;24.40;10.70;;;;;;;3.85;59.07;98369.80;106052;1274;97975;-79
2022/02/06 11:05:18;;;;;;;22.60;10.20;;;;;;;3.83;59.26;98365.05;106009;1274;95296;-75
2022/02/06 11:07:56;;;;;;;25.00;10.00;;;;;;;3.81;59.22;98362.15;106105;1274;112073;-74
2022/02/06 11:10:27;;;;;;;26.90;11.00;;;;;;;3.78;59.00;98359.33;106059;1274;97900;-77
2022/02/06 11:12:59;;;;;;;24.20;10.40;;;;;;;3.71;59.04;98349.69;106066;1274;107808;-80
2022/02/06 11:15:29;;;;;;;23.70;9.60;;;;;;;3.83;59.43;98351.55;106097;1274;97943;-73
2022/02/06 11:18:10;;;;;;;26.00;11.60;;;;;;;3.84;59.06;98349.89;106000;1274;97889;-79
2022/02/06 11:21:00;;;;;;;24.10;10.50;;;;;;;3.78;59.26;98343.06;106099;1274;111404;-75
2022/02/06 11:23:37;;;;;;;23.20;10.00;;;;;;;3.74;59.26;98341.30;105957;1274;96364;-77
2022/02/06 11:26:22;;;;;;;24.20;9.60;;;;;;;3.69;59.38;98334.92;106084;1274;107729;-76
2022/02/06 11:28:57;;;;;;;21.90;8.60;;;;;;;3.66;59.21;98332.14;106037;1274;96055;-77
2022/02/06 11:31:26;;;;;;;22.40;9.10;;;;;;;3.63;59.44;98330.23;106089;1274;95210;-76
2022/02/06 11:33:54;;;;;;;21.60;9.70;;;;;;;3.60;59.25;98323.19;106054;1274;111469;-78
2022/02/06 11:45:28;;;;;;;23.20;8.80;;;;;;;3.39;59.36;98310.48;106035;1274;97913;-76
2022/02/06 11:48:06;;;;;;;23.00;8.20;;;;;;;3.35;59.33;98300.36;106054;1274;111512;-75
2022/02/06 11:50:37;;;;;;;22.20;8.80;;;;;;;3.35;59.27;98296.16;106035;1274;96543;-75
2022/02/06 11:53:08;;;;;;;23.10;9.10;;;;;;;3.34;59.11;98295.34;106093;1274;107651;-75
2022/02/06 11:55:45;;;;;;;21.80;8.20;;;;;;;3.32;59.37;98295.10;106054;1274;97890;-74
2022/02/06 11:58:28;;;;;;;23.30;8.70;;;;;;;3.31;59.35;98296.56;105981;1274;98229;-74
2022/02/06 12:01:05;;;;;;;22.40;9.70;;;;;;;3.29;59.33;98293.17;106025;1274;110699;-74
2022/02/06 12:03:54;;;;;;;23.40;8.50;;;;;;;3.21;59.64;98290.78;106017;1274;97841;-76
2022/02/06 12:06:24;;;;;;;21.40;9.20;;;;;;;3.16;59.73;98284.06;105903;1274;107725;-74
2022/02/06 12:08:58;;;;;;;20.30;7.90;;;;;;;3.11;59.71;98283.44;105808;1274;97889;-74
2022/02/06 12:11:33;;;;;;;20.20;8.20;;;;;;;3.06;59.64;98285.27;105982;1274;96403;-74
2022/02/06 12:14:21;;;;;;;21.40;8.90;;;;;;;3.04;59.98;98281.56;107178;1274;109888;-74
2022/02/06 12:20:09;;;;;;;23.00;9.40;;;;;;;2.90;60.23;98275.31;105941;1274;106750;-72
2022/02/06 12:22:43;;;;;;;21.60;8.80;;;;;;;2.82;60.02;98265.94;106082;1274;96446;-75
2022/02/06 12:25:34;;;;;;;24.50;10.50;;;;;;;2.75;60.60;98259.95;106120;1274;96113;-75
2022/02/06 12:28:31;;;;;;;25.60;9.70;;;;;;;2.62;60.74;98259.61;106179;1274;111139;-73
2022/02/06 12:31:14;;;;;;;25.60;10.60;;;;;;;2.45;61.40;98249.84;106100;1274;95822;-72
2022/02/06 12:33:50;;;;;;;21.00;9.40;;;;;;;2.30;61.40;98249.19;106138;1274;106933;-74
2022/02/06 12:39:24;;;;;;;23.00;9.10;;;;;;;2.13;62.24;98250.05;106070;1274;97969;-73
2022/02/06 12:41:53;;;;;;;23.80;10.50;;;;;;;2.04;62.10;98249.30;106198;1274;111340;-75
2022/02/06 12:44:24;;;;;;;24.80;9.20;;;;;;;2.00;62.67;98243.58;106126;1274;97976;-79
2022/02/06 12:46:59;;;;;;;30.80;11.50;;;;;;;1.96;62.71;98238.02;105982;1274;106815;-77
2022/02/06 12:49:30;;;;;;;26.40;10.50;;;;;;;1.92;63.10;98232.05;106010;1274;97875;-70
2022/02/06 12:51:59;;;;;;;22.30;9.40;;;;;;;1.89;63.02;98224.68;106108;1274;97883;-74
2022/02/06 12:54:27;;;;;;;22.80;9.50;;;;;;;1.91;62.93;98222.47;105971;1274;111414;-73
2022/02/06 12:56:57;;;;;;;23.10;10.70;;;;;;;1.97;63.15;98215.56;106008;1274;97973;-72
2022/02/06 12:59:30;;;;;;;24.70;10.20;;;;;;;2.02;63.22;98212.83;105954;1274;106434;-73
2022/02/06 13:01:59;;;;;;;27.40;9.40;;;;;;;2.04;63.47;98201.76;105912;1274;96310;-72
2022/02/06 13:04:35;;;;;;;22.60;9.90;;;;;;;2.04;63.99;98208.38;106105;1274;99608;-75
2022/02/06 13:07:05;;;;;;;25.60;10.40;;;;;;;2.02;64.07;98207.81;105981;1276;111475;-72
2022/02/06 13:09:42;;;;;;;23.50;8.30;;;;;;;2.03;64.96;98211.76;105877;1277;98014;-71
2022/02/06 13:12:30;;;;;;;;;;;;;;;2.01;65.14;98207.67;105986;1274;107788;-72
2022/02/06 13:23:44;;;;;;;24.80;8.80;;;;;;;2.04;65.50;98204.02;105997;1274;97631;-72
2022/02/06 13:26:30;;;;;;;20.10;7.80;;;;;;;2.02;65.56;98206.38;106031;1274;107638;-71
2022/02/06 13:32:17;;;;;;;22.90;9.30;;;;;;;1.97;65.59;98195.98;105951;1274;97950;-73
2022/02/06 13:37:45;;;;;;;22.30;8.80;;;;;;;1.90;66.10;98185.33;106066;1274;95938;-72
2022/02/06 13:40:19;;;;;;;19.50;7.80;;;;;;;1.87;66.05;98180.21;106007;1274;107836;-73
2022/02/06 13:43:08;;;;;;;22.20;8.30;;;;;;;1.84;66.12;98179.50;106078;1274;97972;-73
2022/02/06 13:45:41;;;;;;;24.50;8.00;;;;;;;1.84;66.39;98176.88;106196;1274;97958;-73
2022/02/06 13:48:15;;;;;;;19.90;7.90;;;;;;;1.84;66.16;98172.48;106212;1274;111330;-74
2022/02/06 13:50:53;;;;;;;22.30;8.10;;;;;;;1.87;66.17;98166.59;106128;1274;97884;-73
2022/02/06 13:53:29;;;;;;;22.10;8.10;;;;;;;1.92;66.68;98159.50;106117;1274;108681;-72
2022/02/06 13:56:03;;;;;;;19.40;7.40;;;;;;;1.91;66.57;98152.57;106186;1274;96312;-71
2022/02/06 13:58:35;;;;;;;23.10;8.40;;;;;;;1.92;66.64;98146.89;106120;1274;97859;-71
2022/02/06 14:01:11;;;;;;;22.00;8.50;;;;;;;1.95;66.43;98140.80;106108;1274;111450;-72
2022/02/06 14:03:47;;;;;;;20.80;7.60;;;;;;;1.98;66.82;98139.98;106104;1274;97892;-68
2022/02/06 14:06:20;;;;;;;21.10;8.00;;;;;;;1.97;66.88;98134.44;106035;1274;107756;-72
2022/02/06 14:11:56;;;;;;;22.90;7.40;;;;;;;1.91;67.15;98126.69;106094;1274;97970;-71
2022/02/06 14:14:27;;;;;;;21.50;8.00;;;;;;;1.87;67.33;98124.10;106128;1274;111413;-72
2022/02/06 14:17:22;;;;;;;19.50;7.20;;;;;;;1.82;67.80;98117.36;106018;1275;95379;-70
2022/02/06 14:19:53;;;;;;;21.60;8.30;;;;;;;1.81;67.71;98118.63;106089;1274;107810;-71
2022/02/06 14:22:36;;;;;;;20.00;8.20;;;;;;;1.81;67.80;98116.55;106121;1274;97983;-70
2022/02/06 14:25:08;;;;;;;24.90;8.40;;;;;;;1.82;68.50;98116.86;106151;1274;97896;-72